sensor_id;sensor_type;location;lat;lon;timestamp;temperature;humidity
46652;DHT22;32377;52.182;5.398;2023-05-10T00:02:24;13.20;99.90
46652;DHT22;32377;52.182;5.398;2023-05-10T00:04:50;13.20;99.90
46652;DHT22;32377;52.182;5.398;2023-05-10T00:07:15;13.20;99.90
46652;DHT22;32377;52.182;5.398;2023-05-10T00:09:43;13.20;99.90
46652;DHT22;32377;52.182;5.398;2023-05-10T00:12:08;13.20;99.90
46652;DHT22;32377;52.182;5.398;2023-05-10T00:14:34;13.20;99.90
46652;DHT22;32377;52.182;5.398;2023-05-10T00:17:00;13.10;99.90
46652;DHT22;32377;52.182;5.398;2023-05-10T00:19:25;13.10;99.90
46652;DHT22;32377;52.182;5.398;2023-05-10T00:21:51;13.10;99.90
46652;DHT22;32377;52.182;5.398;2023-05-10T00:24:16;13.10;99.90
46652;DHT22;32377;52.182;5.398;2023-05-10T00:26:42;13.10;99.90
46652;DHT22;32377;52.182;5.398;2023-05-10T00:29:08;13.10;99.90
46652;DHT22;32377;52.182;5.398;2023-05-10T00:31:33;13.10;99.90
46652;DHT22;32377;52.182;5.398;2023-05-10T00:33:59;13.10;99.90
46652;DHT22;32377;52.182;5.398;2023-05-10T00:36:24;13.10;99.90
46652;DHT22;32377;52.182;5.398;2023-05-10T00:38:50;13.10;99.90
46652;DHT22;32377;52.182;5.398;2023-05-10T00:41:15;13.10;99.90
46652;DHT22;32377;52.182;5.398;2023-05-10T00:43:41;13.20;99.90
46652;DHT22;32377;52.182;5.398;2023-05-10T00:46:07;13.10;99.90
46652;DHT22;32377;52.182;5.398;2023-05-10T00:48:33;13.10;99.90
46652;DHT22;32377;52.182;5.398;2023-05-10T00:51:01;13.10;99.90
46652;DHT22;32377;52.182;5.398;2023-05-10T00:53:26;13.10;99.90
46652;DHT22;32377;52.182;5.398;2023-05-10T00:55:52;13.10;99.90
46652;DHT22;32377;52.182;5.398;2023-05-10T00:58:18;13.10;99.90
46652;DHT22;32377;52.182;5.398;2023-05-10T01:00:44;13.10;99.90
46652;DHT22;32377;52.182;5.398;2023-05-10T01:03:11;13.10;99.90
46652;DHT22;32377;52.182;5.398;2023-05-10T01:05:37;13.10;99.90
46652;DHT22;32377;52.182;5.398;2023-05-10T01:08:03;13.20;99.90
46652;DHT22;32377;52.182;5.398;2023-05-10T01:10:30;13.20;99.90
46652;DHT22;32377;52.182;5.398;2023-05-10T01:12:56;13.20;99.90
46652;DHT22;32377;52.182;5.398;2023-05-10T01:15:22;13.10;99.90
46652;DHT22;32377;52.182;5.398;2023-05-10T01:17:49;13.20;99.90
46652;DHT22;32377;52.182;5.398;2023-05-10T01:20:14;13.10;99.90
46652;DHT22;32377;52.182;5.398;2023-05-10T01:25:49;13.20;99.90
46652;DHT22;32377;52.182;5.398;2023-05-10T01:28:55;13.20;99.90
46652;DHT22;32377;52.182;5.398;2023-05-10T01:37:15;13.20;99.90
46652;DHT22;32377;52.182;5.398;2023-05-10T01:39:47;13.20;99.90
46652;DHT22;32377;52.182;5.398;2023-05-10T01:42:20;13.20;99.90
46652;DHT22;32377;52.182;5.398;2023-05-10T01:47:31;13.20;99.90
46652;DHT22;32377;52.182;5.398;2023-05-10T01:50:03;13.20;99.90
46652;DHT22;32377;52.182;5.398;2023-05-10T01:52:42;13.30;99.90
46652;DHT22;32377;52.182;5.398;2023-05-10T01:55:13;13.20;99.90
46652;DHT22;32377;52.182;5.398;2023-05-10T01:57:40;13.20;99.90
46652;DHT22;32377;52.182;5.398;2023-05-10T02:00:08;13.20;99.90
46652;DHT22;32377;52.182;5.398;2023-05-10T02:02:39;13.20;99.90
46652;DHT22;32377;52.182;5.398;2023-05-10T02:05:07;13.30;99.90
46652;DHT22;32377;52.182;5.398;2023-05-10T02:07:36;13.20;99.90
46652;DHT22;32377;52.182;5.398;2023-05-10T02:10:06;13.20;99.90
46652;DHT22;32377;52.182;5.398;2023-05-10T02:12:37;13.20;99.90
46652;DHT22;32377;52.182;5.398;2023-05-10T02:15:06;13.20;99.90
46652;DHT22;32377;52.182;5.398;2023-05-10T02:17:32;13.20;99.90
46652;DHT22;32377;52.182;5.398;2023-05-10T02:20:00;13.10;99.90
46652;DHT22;32377;52.182;5.398;2023-05-10T02:22:27;13.00;99.90
46652;DHT22;32377;52.182;5.398;2023-05-10T02:24:55;13.00;99.90
46652;DHT22;32377;52.182;5.398;2023-05-10T02:27:24;13.00;99.90
46652;DHT22;32377;52.182;5.398;2023-05-10T02:29:51;13.00;99.90
46652;DHT22;32377;52.182;5.398;2023-05-10T02:32:17;13.00;99.90
46652;DHT22;32377;52.182;5.398;2023-05-10T02:34:44;13.00;99.90
46652;DHT22;32377;52.182;5.398;2023-05-10T02:37:13;13.10;99.90
46652;DHT22;32377;52.182;5.398;2023-05-10T02:39:40;13.10;99.90
46652;DHT22;32377;52.182;5.398;2023-05-10T02:42:11;13.10;99.90
46652;DHT22;32377;52.182;5.398;2023-05-10T02:44:41;13.10;99.90
46652;DHT22;32377;52.182;5.398;2023-05-10T02:47:07;13.10;99.90
46652;DHT22;32377;52.182;5.398;2023-05-10T02:49:32;13.10;99.90
46652;DHT22;32377;52.182;5.398;2023-05-10T02:52:01;13.10;99.90
46652;DHT22;32377;52.182;5.398;2023-05-10T02:54:33;13.10;99.90
46652;DHT22;32377;52.182;5.398;2023-05-10T02:57:04;13.10;99.90
46652;DHT22;32377;52.182;5.398;2023-05-10T02:59:30;13.10;99.90
46652;DHT22;32377;52.182;5.398;2023-05-10T03:01:56;13.10;99.90
46652;DHT22;32377;52.182;5.398;2023-05-10T03:04:21;13.10;99.90
46652;DHT22;32377;52.182;5.398;2023-05-10T03:06:47;13.10;99.90
46652;DHT22;32377;52.182;5.398;2023-05-10T03:09:13;13.10;99.90
46652;DHT22;32377;52.182;5.398;2023-05-10T03:11:49;13.00;99.90
46652;DHT22;32377;52.182;5.398;2023-05-10T03:16:56;13.00;99.90
46652;DHT22;32377;52.182;5.398;2023-05-10T03:19:32;13.00;99.90
46652;DHT22;32377;52.182;5.398;2023-05-10T03:22:04;12.90;99.90
46652;DHT22;32377;52.182;5.398;2023-05-10T03:24:35;13.00;99.90
46652;DHT22;32377;52.182;5.398;2023-05-10T03:27:02;12.90;99.90
46652;DHT22;32377;52.182;5.398;2023-05-10T03:29:30;12.90;99.90
46652;DHT22;32377;52.182;5.398;2023-05-10T03:31:58;12.90;99.90
46652;DHT22;32377;52.182;5.398;2023-05-10T03:34:25;12.80;99.90
46652;DHT22;32377;52.182;5.398;2023-05-10T03:36:51;12.80;99.90
46652;DHT22;32377;52.182;5.398;2023-05-10T03:39:16;12.80;99.90
46652;DHT22;32377;52.182;5.398;2023-05-10T03:41:42;12.80;99.90
46652;DHT22;32377;52.182;5.398;2023-05-10T03:44:08;12.80;99.90
46652;DHT22;32377;52.182;5.398;2023-05-10T03:46:33;12.80;99.90
46652;DHT22;32377;52.182;5.398;2023-05-10T03:48:59;12.80;99.90
46652;DHT22;32377;52.182;5.398;2023-05-10T03:51:24;12.80;99.90
46652;DHT22;32377;52.182;5.398;2023-05-10T03:53:54;12.80;99.90
46652;DHT22;32377;52.182;5.398;2023-05-10T03:59:23;12.90;99.90
46652;DHT22;32377;52.182;5.398;2023-05-10T04:01:48;12.90;99.90
46652;DHT22;32377;52.182;5.398;2023-05-10T04:04:14;12.90;99.90
46652;DHT22;32377;52.182;5.398;2023-05-10T04:06:40;12.80;99.90
46652;DHT22;32377;52.182;5.398;2023-05-10T04:09:05;12.90;99.90
46652;DHT22;32377;52.182;5.398;2023-05-10T04:11:31;12.80;99.90
46652;DHT22;32377;52.182;5.398;2023-05-10T04:13:56;12.80;99.90
46652;DHT22;32377;52.182;5.398;2023-05-10T04:16:22;12.80;99.90
46652;DHT22;32377;52.182;5.398;2023-05-10T04:18:47;12.90;99.90
46652;DHT22;32377;52.182;5.398;2023-05-10T04:21:14;12.80;99.90
46652;DHT22;32377;52.182;5.398;2023-05-10T04:23:40;12.90;99.90
46652;DHT22;32377;52.182;5.398;2023-05-10T04:26:06;12.90;99.90
46652;DHT22;32377;52.182;5.398;2023-05-10T04:28:31;12.90;99.90
46652;DHT22;32377;52.182;5.398;2023-05-10T04:31:04;12.90;99.90
46652;DHT22;32377;52.182;5.398;2023-05-10T04:33:31;12.90;99.90
46652;DHT22;32377;52.182;5.398;2023-05-10T04:35:57;12.90;99.90
46652;DHT22;32377;52.182;5.398;2023-05-10T04:38:22;12.90;99.90
46652;DHT22;32377;52.182;5.398;2023-05-10T04:40:48;12.80;99.90
46652;DHT22;32377;52.182;5.398;2023-05-10T04:43:13;12.80;99.90
46652;DHT22;32377;52.182;5.398;2023-05-10T04:45:39;12.80;99.90
46652;DHT22;32377;52.182;5.398;2023-05-10T04:48:05;12.90;99.90
46652;DHT22;32377;52.182;5.398;2023-05-10T04:50:31;12.90;99.90
46652;DHT22;32377;52.182;5.398;2023-05-10T04:52:57;12.80;99.90
46652;DHT22;32377;52.182;5.398;2023-05-10T04:55:22;12.90;99.90
46652;DHT22;32377;52.182;5.398;2023-05-10T04:57:48;12.90;99.90
46652;DHT22;32377;52.182;5.398;2023-05-10T05:00:14;12.90;99.90
46652;DHT22;32377;52.182;5.398;2023-05-10T05:02:43;12.90;99.90
46652;DHT22;32377;52.182;5.398;2023-05-10T05:05:12;12.80;99.90
46652;DHT22;32377;52.182;5.398;2023-05-10T05:07:38;12.90;99.90
46652;DHT22;32377;52.182;5.398;2023-05-10T05:10:06;12.90;99.90
46652;DHT22;32377;52.182;5.398;2023-05-10T05:12:32;12.90;99.90
46652;DHT22;32377;52.182;5.398;2023-05-10T05:14:57;12.90;99.90
46652;DHT22;32377;52.182;5.398;2023-05-10T05:17:23;12.90;99.90
46652;DHT22;32377;52.182;5.398;2023-05-10T05:19:48;12.90;99.90
46652;DHT22;32377;52.182;5.398;2023-05-10T05:22:14;13.00;99.90
46652;DHT22;32377;52.182;5.398;2023-05-10T05:24:40;12.90;99.90
46652;DHT22;32377;52.182;5.398;2023-05-10T05:27:06;13.00;99.90
46652;DHT22;32377;52.182;5.398;2023-05-10T05:29:31;13.00;99.90
46652;DHT22;32377;52.182;5.398;2023-05-10T05:31:57;13.00;99.90
46652;DHT22;32377;52.182;5.398;2023-05-10T05:34:23;13.00;99.90
46652;DHT22;32377;52.182;5.398;2023-05-10T05:36:50;13.00;99.90
46652;DHT22;32377;52.182;5.398;2023-05-10T05:39:16;13.00;99.90
46652;DHT22;32377;52.182;5.398;2023-05-10T05:41:42;13.00;99.90
46652;DHT22;32377;52.182;5.398;2023-05-10T05:44:07;13.00;99.90
46652;DHT22;32377;52.182;5.398;2023-05-10T05:46:33;13.00;99.90
46652;DHT22;32377;52.182;5.398;2023-05-10T05:48:59;13.00;99.90
46652;DHT22;32377;52.182;5.398;2023-05-10T05:51:24;13.00;99.90
46652;DHT22;32377;52.182;5.398;2023-05-10T05:53:50;13.00;99.90
46652;DHT22;32377;52.182;5.398;2023-05-10T05:56:16;12.90;99.90
46652;DHT22;32377;52.182;5.398;2023-05-10T05:58:43;12.80;99.90
46652;DHT22;32377;52.182;5.398;2023-05-10T06:01:09;12.80;99.90
46652;DHT22;32377;52.182;5.398;2023-05-10T06:03:35;12.80;99.90
46652;DHT22;32377;52.182;5.398;2023-05-10T06:06:00;12.80;99.90
46652;DHT22;32377;52.182;5.398;2023-05-10T06:08:26;12.80;99.90
46652;DHT22;32377;52.182;5.398;2023-05-10T06:10:51;12.80;99.90
46652;DHT22;32377;52.182;5.398;2023-05-10T06:13:17;12.80;99.90
46652;DHT22;32377;52.182;5.398;2023-05-10T06:15:43;12.80;99.90
46652;DHT22;32377;52.182;5.398;2023-05-10T06:18:08;12.70;99.90
46652;DHT22;32377;52.182;5.398;2023-05-10T06:20:34;12.70;99.90
46652;DHT22;32377;52.182;5.398;2023-05-10T06:22:59;12.70;99.90
46652;DHT22;32377;52.182;5.398;2023-05-10T06:25:25;12.70;99.90
46652;DHT22;32377;52.182;5.398;2023-05-10T06:27:51;12.70;99.90
46652;DHT22;32377;52.182;5.398;2023-05-10T06:30:20;12.80;99.90
46652;DHT22;32377;52.182;5.398;2023-05-10T06:32:48;12.90;99.90
46652;DHT22;32377;52.182;5.398;2023-05-10T06:35:13;12.90;99.90
46652;DHT22;32377;52.182;5.398;2023-05-10T06:37:39;13.00;99.90
46652;DHT22;32377;52.182;5.398;2023-05-10T06:40:05;13.00;99.90
46652;DHT22;32377;52.182;5.398;2023-05-10T06:42:31;13.00;99.90
46652;DHT22;32377;52.182;5.398;2023-05-10T06:44:57;13.00;99.90
46652;DHT22;32377;52.182;5.398;2023-05-10T06:47:23;13.00;99.90
46652;DHT22;32377;52.182;5.398;2023-05-10T06:49:48;13.20;99.90
46652;DHT22;32377;52.182;5.398;2023-05-10T06:52:14;13.20;99.90
46652;DHT22;32377;52.182;5.398;2023-05-10T06:54:39;13.10;99.90
46652;DHT22;32377;52.182;5.398;2023-05-10T06:57:05;13.10;99.90
46652;DHT22;32377;52.182;5.398;2023-05-10T06:59:30;13.10;99.90
46652;DHT22;32377;52.182;5.398;2023-05-10T07:01:56;13.10;99.90
46652;DHT22;32377;52.182;5.398;2023-05-10T07:04:22;13.10;99.90
46652;DHT22;32377;52.182;5.398;2023-05-10T07:06:48;13.10;99.90
46652;DHT22;32377;52.182;5.398;2023-05-10T07:09:14;13.10;99.90
46652;DHT22;32377;52.182;5.398;2023-05-10T07:11:41;13.10;99.90
46652;DHT22;32377;52.182;5.398;2023-05-10T07:14:06;13.00;99.90
46652;DHT22;32377;52.182;5.398;2023-05-10T07:16:32;13.10;99.90
46652;DHT22;32377;52.182;5.398;2023-05-10T07:18:57;13.10;99.90
46652;DHT22;32377;52.182;5.398;2023-05-10T07:21:23;13.20;99.90
46652;DHT22;32377;52.182;5.398;2023-05-10T07:23:54;13.20;99.90
46652;DHT22;32377;52.182;5.398;2023-05-10T07:26:19;13.30;99.90
46652;DHT22;32377;52.182;5.398;2023-05-10T07:28:46;13.30;99.90
46652;DHT22;32377;52.182;5.398;2023-05-10T07:31:12;13.40;99.90
46652;DHT22;32377;52.182;5.398;2023-05-10T07:33:37;13.30;99.90
46652;DHT22;32377;52.182;5.398;2023-05-10T07:36:03;13.30;99.90
46652;DHT22;32377;52.182;5.398;2023-05-10T07:38:29;13.30;99.90
46652;DHT22;32377;52.182;5.398;2023-05-10T07:40:54;13.40;99.90
46652;DHT22;32377;52.182;5.398;2023-05-10T07:43:20;13.60;99.90
46652;DHT22;32377;52.182;5.398;2023-05-10T07:45:45;13.70;99.90
46652;DHT22;32377;52.182;5.398;2023-05-10T07:48:11;13.70;99.90
46652;DHT22;32377;52.182;5.398;2023-05-10T07:50:36;13.80;99.90
46652;DHT22;32377;52.182;5.398;2023-05-10T07:53:02;13.80;99.90
46652;DHT22;32377;52.182;5.398;2023-05-10T07:55:27;13.80;99.90
46652;DHT22;32377;52.182;5.398;2023-05-10T07:57:53;13.70;99.90
46652;DHT22;32377;52.182;5.398;2023-05-10T08:00:20;13.60;99.90
46652;DHT22;32377;52.182;5.398;2023-05-10T08:02:46;13.60;99.90
46652;DHT22;32377;52.182;5.398;2023-05-10T08:05:12;13.40;99.90
46652;DHT22;32377;52.182;5.398;2023-05-10T08:07:37;13.40;99.90
46652;DHT22;32377;52.182;5.398;2023-05-10T08:10:04;13.30;99.90
46652;DHT22;32377;52.182;5.398;2023-05-10T08:12:29;13.30;99.90
46652;DHT22;32377;52.182;5.398;2023-05-10T08:14:55;13.30;99.90
46652;DHT22;32377;52.182;5.398;2023-05-10T08:17:21;13.40;99.90
46652;DHT22;32377;52.182;5.398;2023-05-10T08:19:47;13.30;99.90
46652;DHT22;32377;52.182;5.398;2023-05-10T08:22:12;13.40;99.90
46652;DHT22;32377;52.182;5.398;2023-05-10T08:24:38;13.40;99.90
46652;DHT22;32377;52.182;5.398;2023-05-10T08:27:08;13.40;99.90
46652;DHT22;32377;52.182;5.398;2023-05-10T08:29:33;13.30;99.90
46652;DHT22;32377;52.182;5.398;2023-05-10T08:31:59;13.30;99.90
46652;DHT22;32377;52.182;5.398;2023-05-10T08:34:26;13.20;99.90
46652;DHT22;32377;52.182;5.398;2023-05-10T08:36:52;13.20;99.90
46652;DHT22;32377;52.182;5.398;2023-05-10T08:39:17;13.20;99.90
46652;DHT22;32377;52.182;5.398;2023-05-10T08:41:44;13.20;99.90
46652;DHT22;32377;52.182;5.398;2023-05-10T08:44:12;13.20;99.90
46652;DHT22;32377;52.182;5.398;2023-05-10T08:46:41;13.30;99.90
46652;DHT22;32377;52.182;5.398;2023-05-10T08:49:11;13.40;99.90
46652;DHT22;32377;52.182;5.398;2023-05-10T08:51:40;13.60;99.90
46652;DHT22;32377;52.182;5.398;2023-05-10T08:54:09;13.70;99.90
46652;DHT22;32377;52.182;5.398;2023-05-10T08:56:35;13.80;99.90
46652;DHT22;32377;52.182;5.398;2023-05-10T08:59:01;13.90;99.90
46652;DHT22;32377;52.182;5.398;2023-05-10T09:01:27;14.10;99.90
46652;DHT22;32377;52.182;5.398;2023-05-10T09:03:53;14.20;99.90
46652;DHT22;32377;52.182;5.398;2023-05-10T09:06:19;14.50;99.90
46652;DHT22;32377;52.182;5.398;2023-05-10T09:08:45;14.70;99.90
46652;DHT22;32377;52.182;5.398;2023-05-10T09:11:11;14.90;99.90
46652;DHT22;32377;52.182;5.398;2023-05-10T09:13:37;15.00;99.90
46652;DHT22;32377;52.182;5.398;2023-05-10T09:16:03;15.20;99.90
46652;DHT22;32377;52.182;5.398;2023-05-10T09:18:29;15.20;99.90
46652;DHT22;32377;52.182;5.398;2023-05-10T09:20:56;15.20;99.90
46652;DHT22;32377;52.182;5.398;2023-05-10T09:23:21;15.40;99.90
46652;DHT22;32377;52.182;5.398;2023-05-10T09:25:47;15.50;99.90
46652;DHT22;32377;52.182;5.398;2023-05-10T09:28:13;15.70;99.90
46652;DHT22;32377;52.182;5.398;2023-05-10T09:30:38;15.80;99.90
46652;DHT22;32377;52.182;5.398;2023-05-10T09:33:04;15.80;99.90
46652;DHT22;32377;52.182;5.398;2023-05-10T09:35:32;16.00;99.90
46652;DHT22;32377;52.182;5.398;2023-05-10T09:38:03;16.00;99.90
46652;DHT22;32377;52.182;5.398;2023-05-10T09:40:29;16.10;99.90
46652;DHT22;32377;52.182;5.398;2023-05-10T09:43:02;16.10;99.90
46652;DHT22;32377;52.182;5.398;2023-05-10T09:45:30;16.20;99.90
46652;DHT22;32377;52.182;5.398;2023-05-10T09:47:56;16.20;99.90
46652;DHT22;32377;52.182;5.398;2023-05-10T09:50:22;16.40;99.90
46652;DHT22;32377;52.182;5.398;2023-05-10T09:52:50;16.50;99.90
46652;DHT22;32377;52.182;5.398;2023-05-10T09:55:18;16.40;99.90
46652;DHT22;32377;52.182;5.398;2023-05-10T09:59:25;16.40;99.90
46652;DHT22;32377;52.182;5.398;2023-05-10T10:01:59;16.40;99.90
46652;DHT22;32377;52.182;5.398;2023-05-10T10:04:25;16.20;99.90
46652;DHT22;32377;52.182;5.398;2023-05-10T10:07:04;16.30;99.90
46652;DHT22;32377;52.182;5.398;2023-05-10T10:09:30;16.00;99.90
46652;DHT22;32377;52.182;5.398;2023-05-10T10:11:55;15.80;99.90
46652;DHT22;32377;52.182;5.398;2023-05-10T10:14:22;15.70;99.90
46652;DHT22;32377;52.182;5.398;2023-05-10T10:16:50;15.90;99.90
46652;DHT22;32377;52.182;5.398;2023-05-10T10:19:20;16.20;99.90
46652;DHT22;32377;52.182;5.398;2023-05-10T10:21:46;16.20;99.90
46652;DHT22;32377;52.182;5.398;2023-05-10T10:24:12;16.20;99.90
46652;DHT22;32377;52.182;5.398;2023-05-10T10:26:38;16.50;99.90
46652;DHT22;32377;52.182;5.398;2023-05-10T10:32:09;16.70;99.90
46652;DHT22;32377;52.182;5.398;2023-05-10T10:34:36;16.50;99.90
46652;DHT22;32377;52.182;5.398;2023-05-10T10:37:05;16.20;99.90
46652;DHT22;32377;52.182;5.398;2023-05-10T10:39:31;16.20;99.90
46652;DHT22;32377;52.182;5.398;2023-05-10T10:41:58;16.10;99.90
46652;DHT22;32377;52.182;5.398;2023-05-10T10:44:33;16.10;99.90
46652;DHT22;32377;52.182;5.398;2023-05-10T10:47:08;16.20;99.90
46652;DHT22;32377;52.182;5.398;2023-05-10T10:52:30;16.60;99.90
46652;DHT22;32377;52.182;5.398;2023-05-10T10:55:12;16.70;99.90
46652;DHT22;32377;52.182;5.398;2023-05-10T10:57:47;16.70;99.90
46652;DHT22;32377;52.182;5.398;2023-05-10T11:00:25;16.60;99.90
46652;DHT22;32377;52.182;5.398;2023-05-10T11:03:06;16.60;99.90
46652;DHT22;32377;52.182;5.398;2023-05-10T11:08:00;16.40;99.90
46652;DHT22;32377;52.182;5.398;2023-05-10T11:10:26;16.60;99.90
46652;DHT22;32377;52.182;5.398;2023-05-10T11:15:19;16.60;99.90
46652;DHT22;32377;52.182;5.398;2023-05-10T11:17:47;16.70;99.90
46652;DHT22;32377;52.182;5.398;2023-05-10T11:20:17;16.50;99.90
46652;DHT22;32377;52.182;5.398;2023-05-10T11:22:54;16.70;99.90
46652;DHT22;32377;52.182;5.398;2023-05-10T11:25:25;16.70;99.90
46652;DHT22;32377;52.182;5.398;2023-05-10T11:27:51;16.70;99.90
46652;DHT22;32377;52.182;5.398;2023-05-10T11:30:17;16.60;99.90
46652;DHT22;32377;52.182;5.398;2023-05-10T11:32:43;16.70;99.90
46652;DHT22;32377;52.182;5.398;2023-05-10T11:35:10;16.80;99.90
46652;DHT22;32377;52.182;5.398;2023-05-10T11:37:37;17.00;99.90
46652;DHT22;32377;52.182;5.398;2023-05-10T11:40:09;17.00;99.90
46652;DHT22;32377;52.182;5.398;2023-05-10T11:42:38;17.10;99.90
46652;DHT22;32377;52.182;5.398;2023-05-10T11:45:04;17.20;99.90
46652;DHT22;32377;52.182;5.398;2023-05-10T11:47:30;17.10;99.90
46652;DHT22;32377;52.182;5.398;2023-05-10T11:49:57;17.20;99.90
46652;DHT22;32377;52.182;5.398;2023-05-10T11:52:23;16.80;99.90
46652;DHT22;32377;52.182;5.398;2023-05-10T11:54:53;16.90;99.90
46652;DHT22;32377;52.182;5.398;2023-05-10T11:57:19;16.90;99.90
46652;DHT22;32377;52.182;5.398;2023-05-10T11:59:46;16.90;99.90
46652;DHT22;32377;52.182;5.398;2023-05-10T12:02:13;17.00;99.90
46652;DHT22;32377;52.182;5.398;2023-05-10T12:04:39;17.10;99.90
46652;DHT22;32377;52.182;5.398;2023-05-10T12:07:05;17.20;99.90
46652;DHT22;32377;52.182;5.398;2023-05-10T12:09:31;17.10;99.90
46652;DHT22;32377;52.182;5.398;2023-05-10T12:11:56;17.10;99.90
46652;DHT22;32377;52.182;5.398;2023-05-10T12:14:25;17.00;99.90
46652;DHT22;32377;52.182;5.398;2023-05-10T12:16:50;16.90;99.90
46652;DHT22;32377;52.182;5.398;2023-05-10T12:19:19;17.20;99.90
46652;DHT22;32377;52.182;5.398;2023-05-10T12:21:47;17.40;99.90
46652;DHT22;32377;52.182;5.398;2023-05-10T12:24:12;17.40;99.90
46652;DHT22;32377;52.182;5.398;2023-05-10T12:26:38;17.50;99.90
46652;DHT22;32377;52.182;5.398;2023-05-10T12:29:15;17.50;99.90
46652;DHT22;32377;52.182;5.398;2023-05-10T12:31:53;17.50;99.90
46652;DHT22;32377;52.182;5.398;2023-05-10T12:34:33;17.80;99.90
46652;DHT22;32377;52.182;5.398;2023-05-10T12:37:00;17.80;99.90
46652;DHT22;32377;52.182;5.398;2023-05-10T12:39:26;17.70;99.90
46652;DHT22;32377;52.182;5.398;2023-05-10T12:41:52;17.70;99.90
46652;DHT22;32377;52.182;5.398;2023-05-10T12:44:18;17.90;99.90
46652;DHT22;32377;52.182;5.398;2023-05-10T12:46:43;17.60;99.90
46652;DHT22;32377;52.182;5.398;2023-05-10T12:49:09;17.80;99.90
46652;DHT22;32377;52.182;5.398;2023-05-10T12:51:35;17.70;99.90
46652;DHT22;32377;52.182;5.398;2023-05-10T12:54:02;17.80;99.90
46652;DHT22;32377;52.182;5.398;2023-05-10T12:56:28;17.90;99.90
46652;DHT22;32377;52.182;5.398;2023-05-10T12:58:53;18.20;99.90
46652;DHT22;32377;52.182;5.398;2023-05-10T13:01:19;18.10;99.90
46652;DHT22;32377;52.182;5.398;2023-05-10T13:03:44;18.00;99.90
46652;DHT22;32377;52.182;5.398;2023-05-10T13:06:10;17.70;99.90
46652;DHT22;32377;52.182;5.398;2023-05-10T13:08:36;17.80;99.90
46652;DHT22;32377;52.182;5.398;2023-05-10T13:11:02;17.70;99.90
46652;DHT22;32377;52.182;5.398;2023-05-10T13:13:28;17.50;99.90
46652;DHT22;32377;52.182;5.398;2023-05-10T13:15:53;17.50;99.90
46652;DHT22;32377;52.182;5.398;2023-05-10T13:18:19;17.60;99.90
46652;DHT22;32377;52.182;5.398;2023-05-10T13:20:45;17.60;99.90
46652;DHT22;32377;52.182;5.398;2023-05-10T13:23:10;17.70;99.90
46652;DHT22;32377;52.182;5.398;2023-05-10T13:25:36;17.50;99.90
46652;DHT22;32377;52.182;5.398;2023-05-10T13:28:02;17.50;99.90
46652;DHT22;32377;52.182;5.398;2023-05-10T13:30:28;17.30;99.90
46652;DHT22;32377;52.182;5.398;2023-05-10T13:32:54;17.10;99.90
46652;DHT22;32377;52.182;5.398;2023-05-10T13:35:20;17.00;99.90
46652;DHT22;32377;52.182;5.398;2023-05-10T13:37:45;16.70;99.90
46652;DHT22;32377;52.182;5.398;2023-05-10T13:40:11;16.70;99.90
46652;DHT22;32377;52.182;5.398;2023-05-10T13:42:37;16.50;99.90
46652;DHT22;32377;52.182;5.398;2023-05-10T13:45:03;16.40;99.90
46652;DHT22;32377;52.182;5.398;2023-05-10T13:47:28;16.20;99.90
46652;DHT22;32377;52.182;5.398;2023-05-10T13:49:54;16.10;99.90
46652;DHT22;32377;52.182;5.398;2023-05-10T13:52:20;15.90;99.90
46652;DHT22;32377;52.182;5.398;2023-05-10T13:54:45;15.70;99.90
46652;DHT22;32377;52.182;5.398;2023-05-10T13:57:11;15.70;99.90
46652;DHT22;32377;52.182;5.398;2023-05-10T13:59:39;15.80;99.90
46652;DHT22;32377;52.182;5.398;2023-05-10T14:02:04;15.90;99.90
46652;DHT22;32377;52.182;5.398;2023-05-10T14:04:31;15.80;99.90
46652;DHT22;32377;52.182;5.398;2023-05-10T14:06:57;15.80;99.90
46652;DHT22;32377;52.182;5.398;2023-05-10T14:09:22;15.70;99.90
46652;DHT22;32377;52.182;5.398;2023-05-10T14:11:48;15.60;99.90
46652;DHT22;32377;52.182;5.398;2023-05-10T14:14:13;15.50;99.90
46652;DHT22;32377;52.182;5.398;2023-05-10T14:16:42;15.50;99.90
46652;DHT22;32377;52.182;5.398;2023-05-10T14:19:09;15.50;99.90
46652;DHT22;32377;52.182;5.398;2023-05-10T14:21:34;15.40;99.90
46652;DHT22;32377;52.182;5.398;2023-05-10T14:24:00;15.40;99.90
46652;DHT22;32377;52.182;5.398;2023-05-10T14:26:26;15.40;99.90
46652;DHT22;32377;52.182;5.398;2023-05-10T14:28:51;15.40;99.90
46652;DHT22;32377;52.182;5.398;2023-05-10T14:31:17;15.40;99.90
46652;DHT22;32377;52.182;5.398;2023-05-10T14:33:47;15.40;99.90
46652;DHT22;32377;52.182;5.398;2023-05-10T14:36:13;15.40;99.90
46652;DHT22;32377;52.182;5.398;2023-05-10T14:38:39;15.40;99.90
46652;DHT22;32377;52.182;5.398;2023-05-10T14:41:05;15.40;99.90
46652;DHT22;32377;52.182;5.398;2023-05-10T14:43:31;15.30;99.90
46652;DHT22;32377;52.182;5.398;2023-05-10T14:45:57;15.30;99.90
46652;DHT22;32377;52.182;5.398;2023-05-10T14:48:22;15.30;99.90
46652;DHT22;32377;52.182;5.398;2023-05-10T14:50:48;15.30;99.90
46652;DHT22;32377;52.182;5.398;2023-05-10T14:53:15;15.30;99.90
46652;DHT22;32377;52.182;5.398;2023-05-10T14:55:41;15.20;99.90
46652;DHT22;32377;52.182;5.398;2023-05-10T14:58:06;15.20;99.90
46652;DHT22;32377;52.182;5.398;2023-05-10T15:00:32;15.20;99.90
46652;DHT22;32377;52.182;5.398;2023-05-10T15:02:57;15.20;99.90
46652;DHT22;32377;52.182;5.398;2023-05-10T15:05:23;15.20;99.90
46652;DHT22;32377;52.182;5.398;2023-05-10T15:07:49;15.30;99.90
46652;DHT22;32377;52.182;5.398;2023-05-10T15:10:15;15.30;99.90
46652;DHT22;32377;52.182;5.398;2023-05-10T15:12:40;15.30;99.90
46652;DHT22;32377;52.182;5.398;2023-05-10T15:15:06;15.50;99.90
46652;DHT22;32377;52.182;5.398;2023-05-10T15:17:33;15.50;99.90
46652;DHT22;32377;52.182;5.398;2023-05-10T15:19:58;15.50;99.90
46652;DHT22;32377;52.182;5.398;2023-05-10T15:22:24;15.60;99.90
46652;DHT22;32377;52.182;5.398;2023-05-10T15:24:50;15.70;99.90
46652;DHT22;32377;52.182;5.398;2023-05-10T15:27:16;15.60;99.90
46652;DHT22;32377;52.182;5.398;2023-05-10T15:29:42;15.70;99.90
46652;DHT22;32377;52.182;5.398;2023-05-10T15:32:08;15.90;99.90
46652;DHT22;32377;52.182;5.398;2023-05-10T15:34:33;15.80;99.90
46652;DHT22;32377;52.182;5.398;2023-05-10T15:36:59;15.90;99.90
46652;DHT22;32377;52.182;5.398;2023-05-10T15:39:25;16.10;99.90
46652;DHT22;32377;52.182;5.398;2023-05-10T15:41:50;16.10;99.90
46652;DHT22;32377;52.182;5.398;2023-05-10T15:44:16;16.00;99.90
46652;DHT22;32377;52.182;5.398;2023-05-10T15:46:42;16.10;99.90
46652;DHT22;32377;52.182;5.398;2023-05-10T15:49:07;16.20;99.90
46652;DHT22;32377;52.182;5.398;2023-05-10T15:51:33;16.30;99.90
46652;DHT22;32377;52.182;5.398;2023-05-10T15:53:59;16.40;99.90
46652;DHT22;32377;52.182;5.398;2023-05-10T15:59:25;16.50;99.90
46652;DHT22;32377;52.182;5.398;2023-05-10T16:01:51;16.50;99.90